Time;durP1;ratioP1;P1;durP2;ratioP2;P2;SDS_P1;SDS_P2;PMS_P1;PMS_P2;Temp;Humidity;BMP_temperature;BMP_pressure;BME280_temperature;BME280_humidity;BME280_pressure;Samples;Min_cycle;Max_cycle;Signal;HPM_P1;HPM_P2
2022/10/29 00:00:25;;;;;;;103.88;37.75;;;;;;;;;;5053011;28;20017;-44
2022/10/29 00:02:50;;;;;;;94.47;36.60;;;;;;;;;;5052750;28;20025;-44
2022/10/29 00:05:15;;;;;;;107.70;38.72;;;;;;;;;;5053247;28;20036;-44
2022/10/29 00:07:40;;;;;;;125.30;42.70;;;;;;;;;;5051583;28;20029;-44
2022/10/29 00:10:06;;;;;;;107.25;40.40;;;;;;;;;;5053001;28;20024;-44
2022/10/29 00:12:32;;;;;;;117.05;41.35;;;;;;;;;;5052680;28;20078;-44
2022/10/29 00:14:57;;;;;;;125.65;44.58;;;;;;;;;;5052978;28;20487;-44
2022/10/29 00:17:22;;;;;;;128.55;43.30;;;;;;;;;;5052685;28;20078;-44
2022/10/29 00:19:47;;;;;;;122.55;43.75;;;;;;;;;;5052955;28;20017;-44
2022/10/29 00:22:13;;;;;;;129.73;41.95;;;;;;;;;;5052909;28;20028;-44
2022/10/29 00:24:38;;;;;;;121.35;44.05;;;;;;;;;;5052736;28;20033;-44
2022/10/29 00:27:04;;;;;;;118.93;40.03;;;;;;;;;;5052606;28;20040;-44
2022/10/29 00:29:29;;;;;;;126.72;40.67;;;;;;;;;;5052716;28;20027;-44
2022/10/29 00:31:54;;;;;;;117.82;38.55;;;;;;;;;;5052501;28;20017;-44
2022/10/29 00:34:20;;;;;;;122.32;39.63;;;;;;;;;;5052860;28;20017;-44
2022/10/29 00:36:45;;;;;;;118.13;41.30;;;;;;;;;;5052790;28;20088;-44
2022/10/29 00:39:13;;;;;;;111.00;36.83;;;;;;;;;;5052519;28;20143;-44
2022/10/29 00:41:39;;;;;;;119.83;38.20;;;;;;;;;;5052601;28;20025;-44
2022/10/29 00:44:13;;;;;;;106.80;37.95;;;;;;;;;;5052593;28;20020;-44
2022/10/29 00:46:39;;;;;;;110.43;39.08;;;;;;;;;;5052277;28;20120;-44
2022/10/29 00:49:05;;;;;;;121.65;39.65;;;;;;;;;;5052409;28;20053;-44
2022/10/29 00:51:31;;;;;;;115.47;42.00;;;;;;;;;;5051324;28;20074;-44
2022/10/29 00:54:07;;;;;;;121.35;41.17;;;;;;;;;;5052494;28;20243;-44
2022/10/29 00:56:35;;;;;;;120.90;41.13;;;;;;;;;;5052387;28;20762;-45
2022/10/29 00:59:00;;;;;;;121.32;41.42;;;;;;;;;;5052250;28;20021;-44
2022/10/29 01:01:25;;;;;;;117.45;40.35;;;;;;;;;;5051271;28;20021;-45
2022/10/29 01:03:51;;;;;;;106.05;39.15;;;;;;;;;;5054409;28;20028;-44
2022/10/29 01:06:17;;;;;;;110.82;39.50;;;;;;;;;;5056400;28;20049;-44
2022/10/29 01:08:42;;;;;;;120.18;41.17;;;;;;;;;;5056531;28;20056;-44
2022/10/29 01:11:16;;;;;;;108.57;38.47;;;;;;;;;;5054901;28;20110;-45
2022/10/29 01:13:48;;;;;;;125.05;42.13;;;;;;;;;;5055911;28;20020;-44
2022/10/29 01:16:18;;;;;;;123.15;39.03;;;;;;;;;;5056327;28;20017;-44
2022/10/29 01:18:59;;;;;;;114.90;39.25;;;;;;;;;;5056095;28;20021;-43
2022/10/29 01:21:24;;;;;;;126.45;39.78;;;;;;;;;;5054683;28;20383;-43
2022/10/29 01:23:58;;;;;;;119.43;38.77;;;;;;;;;;5055950;28;20025;-44
2022/10/29 01:26:30;;;;;;;120.72;39.45;;;;;;;;;;5056011;28;20250;-45
2022/10/29 01:29:01;;;;;;;104.57;38.65;;;;;;;;;;5055831;28;20044;-46
2022/10/29 01:31:29;;;;;;;109.00;36.05;;;;;;;;;;5055835;28;20032;-45
2022/10/29 01:34:01;;;;;;;107.95;36.85;;;;;;;;;;5055849;28;20017;-45
2022/10/29 01:36:46;;;;;;;102.93;34.92;;;;;;;;;;5056184;28;20032;-45
2022/10/29 01:39:32;;;;;;;116.07;39.05;;;;;;;;;;5050349;28;20033;-45
2022/10/29 01:42:16;;;;;;;116.03;40.10;;;;;;;;;;5054450;28;20021;-45
2022/10/29 01:44:45;;;;;;;99.50;36.40;;;;;;;;;;5055451;28;20070;-46
2022/10/29 01:47:14;;;;;;;106.70;39.08;;;;;;;;;;5055309;28;20041;-44
2022/10/29 01:49:41;;;;;;;91.90;35.30;;;;;;;;;;5055871;28;20051;-45
2022/10/29 01:52:08;;;;;;;101.47;35.45;;;;;;;;;;5055640;28;20024;-44
2022/10/29 01:54:33;;;;;;;101.97;34.47;;;;;;;;;;5055429;28;20384;-45
2022/10/29 01:56:59;;;;;;;97.07;36.80;;;;;;;;;;5055307;28;20021;-44
2022/10/29 01:59:27;;;;;;;93.68;34.25;;;;;;;;;;5055186;28;20028;-45
2022/10/29 02:02:08;;;;;;;97.07;34.20;;;;;;;;;;5055468;28;20013;-45
2022/10/29 02:04:49;;;;;;;96.97;34.20;;;;;;;;;;5055643;28;20380;-45
2022/10/29 02:07:29;;;;;;;98.45;34.95;;;;;;;;;;5055080;28;20029;-44
2022/10/29 02:10:17;;;;;;;110.28;36.95;;;;;;;;;;5054998;28;20024;-44
2022/10/29 02:12:48;;;;;;;105.50;35.55;;;;;;;;;;5054546;28;20094;-44
2022/10/29 02:15:19;;;;;;;98.82;35.28;;;;;;;;;;5055041;28;20021;-45
2022/10/29 02:17:45;;;;;;;109.20;34.35;;;;;;;;;;5054845;28;20032;-44
2022/10/29 02:20:12;;;;;;;116.80;35.75;;;;;;;;;;5054654;28;20029;-44
2022/10/29 02:22:38;;;;;;;97.65;34.55;;;;;;;;;;5055012;28;20021;-44
2022/10/29 02:25:04;;;;;;;106.82;33.70;;;;;;;;;;5054608;28;20487;-45
2022/10/29 02:27:29;;;;;;;93.13;35.35;;;;;;;;;;5054828;28;20052;-45
2022/10/29 02:29:54;;;;;;;103.78;33.42;;;;;;;;;;5053343;28;20465;-45
2022/10/29 02:32:20;;;;;;;89.80;33.40;;;;;;;;;;5054651;28;20067;-44
2022/10/29 02:34:45;;;;;;;96.68;33.30;;;;;;;;;;5054364;28;20096;-46
2022/10/29 02:37:10;;;;;;;83.57;31.48;;;;;;;;;;5054892;28;20136;-44
2022/10/29 02:39:36;;;;;;;91.32;33.25;;;;;;;;;;5054491;28;20049;-45
2022/10/29 02:42:01;;;;;;;85.82;32.50;;;;;;;;;;5054324;28;20014;-45
2022/10/29 02:44:26;;;;;;;86.90;31.30;;;;;;;;;;5054318;28;20021;-44
2022/10/29 02:46:52;;;;;;;85.30;32.00;;;;;;;;;;5054505;28;20037;-45
2022/10/29 02:49:17;;;;;;;88.03;32.90;;;;;;;;;;5054439;28;20132;-45
2022/10/29 02:51:42;;;;;;;88.72;34.10;;;;;;;;;;5054532;28;20024;-45
2022/10/29 02:54:08;;;;;;;103.30;35.53;;;;;;;;;;5054426;28;20044;-44
2022/10/29 02:56:33;;;;;;;101.40;34.08;;;;;;;;;;5054122;28;20025;-45
2022/10/29 02:58:58;;;;;;;93.45;33.53;;;;;;;;;;5054033;28;20083;-45
2022/10/29 03:01:23;;;;;;;103.22;35.67;;;;;;;;;;5054035;28;20013;-44
2022/10/29 03:03:49;;;;;;;102.13;35.35;;;;;;;;;;5054024;28;20021;-45
2022/10/29 03:06:15;;;;;;;104.93;38.05;;;;;;;;;;5053956;28;20028;-45
2022/10/29 03:08:40;;;;;;;111.05;36.78;;;;;;;;;;5053753;28;20431;-45
2022/10/29 03:11:06;;;;;;;105.75;35.40;;;;;;;;;;5052721;28;20020;-45
2022/10/29 03:13:31;;;;;;;110.55;36.88;;;;;;;;;;5053856;28;20024;-45
2022/10/29 03:15:56;;;;;;;123.35;36.92;;;;;;;;;;5053853;28;20021;-45
2022/10/29 03:18:21;;;;;;;115.82;36.00;;;;;;;;;;5053691;28;20017;-45
2022/10/29 03:20:47;;;;;;;114.93;36.00;;;;;;;;;;5053390;28;20482;-45
2022/10/29 03:23:12;;;;;;;107.05;35.17;;;;;;;;;;5053584;28;20242;-45
2022/10/29 03:25:38;;;;;;;126.78;37.13;;;;;;;;;;5053072;28;20025;-45
2022/10/29 03:28:03;;;;;;;123.88;37.53;;;;;;;;;;5053492;28;20033;-44
2022/10/29 03:30:28;;;;;;;121.22;36.83;;;;;;;;;;5052107;28;20021;-44
2022/10/29 03:32:53;;;;;;;112.80;37.38;;;;;;;;;;5053304;28;20535;-44
2022/10/29 03:35:19;;;;;;;122.40;36.55;;;;;;;;;;5053236;28;20021;-44
2022/10/29 03:37:47;;;;;;;131.73;39.90;;;;;;;;;;5053170;28;20012;-44
2022/10/29 03:40:12;;;;;;;118.68;37.88;;;;;;;;;;5053479;28;20105;-44
2022/10/29 03:42:38;;;;;;;111.97;36.75;;;;;;;;;;5053413;28;20379;-44
2022/10/29 03:45:03;;;;;;;106.28;36.45;;;;;;;;;;5053423;28;20029;-44
2022/10/29 03:47:28;;;;;;;119.03;37.35;;;;;;;;;;5052777;28;20082;-44
2022/10/29 03:49:54;;;;;;;135.80;40.03;;;;;;;;;;5052933;28;20388;-44
2022/10/29 03:52:19;;;;;;;109.97;37.97;;;;;;;;;;5053302;28;20027;-44
2022/10/29 03:54:45;;;;;;;119.82;37.28;;;;;;;;;;5051880;28;20025;-43
2022/10/29 03:57:10;;;;;;;120.22;37.47;;;;;;;;;;5051509;28;20392;-44
2022/10/29 03:59:35;;;;;;;108.78;37.50;;;;;;;;;;5052995;28;20029;-44
2022/10/29 04:02:01;;;;;;;115.43;36.40;;;;;;;;;;5052588;28;20021;-44
2022/10/29 04:04:26;;;;;;;113.90;37.17;;;;;;;;;;5052974;28;20056;-43
2022/10/29 04:06:51;;;;;;;111.68;35.88;;;;;;;;;;5051522;28;20044;-44
2022/10/29 04:09:17;;;;;;;103.95;35.05;;;;;;;;;;5053058;28;20032;-44
2022/10/29 04:11:42;;;;;;;106.68;38.15;;;;;;;;;;5052906;28;20021;-44
2022/10/29 04:14:07;;;;;;;97.15;35.22;;;;;;;;;;5052822;28;20052;-44
2022/10/29 04:16:32;;;;;;;98.22;35.55;;;;;;;;;;5052757;28;20067;-44
2022/10/29 04:18:58;;;;;;;95.55;35.53;;;;;;;;;;5051298;28;20075;-44
2022/10/29 04:21:23;;;;;;;100.75;36.20;;;;;;;;;;5052600;28;20087;-45
2022/10/29 04:23:49;;;;;;;94.38;35.53;;;;;;;;;;5052749;28;20023;-44
2022/10/29 04:26:14;;;;;;;109.88;36.78;;;;;;;;;;5051473;28;20059;-44
2022/10/29 04:28:39;;;;;;;88.93;34.85;;;;;;;;;;5052783;28;20037;-44
2022/10/29 04:31:05;;;;;;;91.47;34.78;;;;;;;;;;5052476;28;20104;-45
2022/10/29 04:33:31;;;;;;;100.15;36.03;;;;;;;;;;5052520;28;20028;-44
2022/10/29 04:35:56;;;;;;;92.05;36.05;;;;;;;;;;5052409;28;20078;-44
2022/10/29 04:38:21;;;;;;;108.97;37.70;;;;;;;;;;5053747;28;20013;-44
2022/10/29 04:40:47;;;;;;;90.25;35.15;;;;;;;;;;5056857;28;20017;-44
2022/10/29 04:43:12;;;;;;;89.43;35.55;;;;;;;;;;5056725;28;20017;-45
2022/10/29 04:45:38;;;;;;;91.82;34.42;;;;;;;;;;5056677;28;20021;-44
2022/10/29 04:48:04;;;;;;;90.57;33.05;;;;;;;;;;5054884;28;20059;-44
2022/10/29 04:50:29;;;;;;;90.90;33.47;;;;;;;;;;5056356;28;20021;-44
2022/10/29 04:52:58;;;;;;;99.07;34.72;;;;;;;;;;5056637;28;20525;-44
2022/10/29 04:55:23;;;;;;;87.95;32.97;;;;;;;;;;5056324;28;20106;-44
2022/10/29 04:57:49;;;;;;;95.20;34.38;;;;;;;;;;5056561;28;20474;-43
2022/10/29 05:00:14;;;;;;;97.72;33.38;;;;;;;;;;5056557;28;20472;-44
2022/10/29 05:02:40;;;;;;;94.70;34.30;;;;;;;;;;5056188;28;20036;-43
2022/10/29 05:05:05;;;;;;;87.43;32.80;;;;;;;;;;5056323;28;20071;-45
2022/10/29 05:07:30;;;;;;;91.20;33.97;;;;;;;;;;5056182;28;20041;-43
2022/10/29 05:09:56;;;;;;;92.20;32.95;;;;;;;;;;5056601;28;20412;-43
2022/10/29 05:12:21;;;;;;;86.90;32.47;;;;;;;;;;5056098;28;20013;-44
2022/10/29 05:14:46;;;;;;;91.50;33.83;;;;;;;;;;5055988;28;20059;-43
2022/10/29 05:17:12;;;;;;;94.28;33.90;;;;;;;;;;5055971;28;20021;-44
2022/10/29 05:19:37;;;;;;;98.80;36.40;;;;;;;;;;5056223;28;20067;-44
2022/10/29 05:22:03;;;;;;;94.85;35.13;;;;;;;;;;5054778;28;20024;-44
2022/10/29 05:24:28;;;;;;;100.20;36.05;;;;;;;;;;5055959;28;20025;-44
2022/10/29 05:26:53;;;;;;;98.28;37.97;;;;;;;;;;5055832;28;20124;-43
2022/10/29 05:29:19;;;;;;;91.18;37.88;;;;;;;;;;5055760;28;20036;-44
2022/10/29 05:31:44;;;;;;;91.90;36.38;;;;;;;;;;5054342;28;20074;-45
2022/10/29 05:34:09;;;;;;;85.32;34.53;;;;;;;;;;5055649;28;20021;-43
2022/10/29 05:36:34;;;;;;;87.00;34.65;;;;;;;;;;5056159;28;20060;-43
2022/10/29 05:39:00;;;;;;;86.93;36.97;;;;;;;;;;5055515;28;20025;-44
2022/10/29 05:41:25;;;;;;;106.57;36.97;;;;;;;;;;5055622;28;20021;-44
2022/10/29 05:43:50;;;;;;;106.25;37.75;;;;;;;;;;5055693;28;20028;-44
2022/10/29 05:46:16;;;;;;;103.63;38.45;;;;;;;;;;5055499;28;20021;-44
2022/10/29 05:48:41;;;;;;;98.45;38.50;;;;;;;;;;5055054;28;20059;-44
2022/10/29 05:51:07;;;;;;;99.63;37.40;;;;;;;;;;5055448;28;20025;-44
2022/10/29 05:53:32;;;;;;;92.68;38.15;;;;;;;;;;5055482;28;20024;-44
2022/10/29 05:55:57;;;;;;;105.28;43.60;;;;;;;;;;5055434;28;20100;-44
2022/10/29 05:58:23;;;;;;;104.15;44.00;;;;;;;;;;5055427;28;20064;-44
2022/10/29 06:00:48;;;;;;;89.97;36.42;;;;;;;;;;5055135;28;20017;-44
2022/10/29 06:03:20;;;;;;;83.73;35.90;;;;;;;;;;5055090;28;20476;-44
2022/10/29 06:05:46;;;;;;;96.07;36.60;;;;;;;;;;5055278;28;20257;-44
2022/10/29 06:08:11;;;;;;;94.35;37.33;;;;;;;;;;5055172;28;20033;-45
2022/10/29 06:10:36;;;;;;;106.65;40.55;;;;;;;;;;5055040;28;20464;-44
2022/10/29 06:13:07;;;;;;;103.47;38.30;;;;;;;;;;5054943;28;20035;-44
2022/10/29 06:15:33;;;;;;;98.75;38.38;;;;;;;;;;5053519;28;20044;-44
2022/10/29 06:17:58;;;;;;;92.10;36.88;;;;;;;;;;5053348;28;20464;-44
2022/10/29 06:20:23;;;;;;;89.28;36.05;;;;;;;;;;5054688;28;20029;-45
2022/10/29 06:22:55;;;;;;;93.40;39.17;;;;;;;;;;5055073;28;20090;-44
2022/10/29 06:25:20;;;;;;;87.75;37.17;;;;;;;;;;5054810;28;20140;-44
2022/10/29 06:27:45;;;;;;;86.33;34.77;;;;;;;;;;5054651;28;20380;-43
2022/10/29 06:30:11;;;;;;;85.38;38.17;;;;;;;;;;5054491;28;20242;-45
2022/10/29 06:32:36;;;;;;;88.97;37.28;;;;;;;;;;5054727;28;20017;-44
2022/10/29 06:35:02;;;;;;;89.50;37.83;;;;;;;;;;5054643;28;20082;-43
2022/10/29 06:37:28;;;;;;;83.45;36.50;;;;;;;;;;5053291;28;20021;-44
2022/10/29 06:39:53;;;;;;;83.60;35.88;;;;;;;;;;5054540;28;20017;-44
2022/10/29 06:42:19;;;;;;;78.07;34.35;;;;;;;;;;5054480;28;20028;-44
2022/10/29 06:44:44;;;;;;;78.30;33.92;;;;;;;;;;5054349;28;20028;-44
2022/10/29 06:47:09;;;;;;;74.90;33.22;;;;;;;;;;5054438;28;20035;-44
2022/10/29 06:49:35;;;;;;;68.90;31.92;;;;;;;;;;5052769;28;20049;-44
2022/10/29 06:52:00;;;;;;;66.18;30.27;;;;;;;;;;5054385;28;20102;-44
2022/10/29 06:54:25;;;;;;;73.32;32.15;;;;;;;;;;5054295;28;20021;-44
2022/10/29 06:56:50;;;;;;;79.32;31.95;;;;;;;;;;5054326;28;20025;-44
2022/10/29 06:59:16;;;;;;;69.30;30.33;;;;;;;;;;5053953;28;20017;-45
2022/10/29 07:01:41;;;;;;;78.95;32.15;;;;;;;;;;5053045;28;20295;-44
2022/10/29 07:04:06;;;;;;;76.18;31.60;;;;;;;;;;5054260;28;20075;-44
2022/10/29 07:06:34;;;;;;;86.80;32.47;;;;;;;;;;5054017;28;20069;-44
2022/10/29 07:09:00;;;;;;;81.78;34.45;;;;;;;;;;5053907;28;20025;-43
2022/10/29 07:11:25;;;;;;;90.43;34.17;;;;;;;;;;5053813;28;20479;-43
2022/10/29 07:13:50;;;;;;;84.15;34.63;;;;;;;;;;5053722;28;20025;-43
2022/10/29 07:16:16;;;;;;;89.43;35.53;;;;;;;;;;5054000;28;20021;-44
2022/10/29 07:18:41;;;;;;;84.50;34.13;;;;;;;;;;5053913;28;20075;-44
2022/10/29 07:21:06;;;;;;;89.82;35.08;;;;;;;;;;5053983;28;20032;-44
2022/10/29 07:23:32;;;;;;;89.53;33.42;;;;;;;;;;5053643;28;20017;-44
2022/10/29 07:25:57;;;;;;;92.38;35.63;;;;;;;;;;5053591;28;20074;-44
2022/10/29 07:28:24;;;;;;;79.75;33.75;;;;;;;;;;5053577;28;20037;-44
2022/10/29 07:30:50;;;;;;;83.03;33.88;;;;;;;;;;5053338;28;20025;-45
2022/10/29 07:33:16;;;;;;;87.53;35.63;;;;;;;;;;5053605;28;20099;-44
2022/10/29 07:35:41;;;;;;;84.15;36.17;;;;;;;;;;5053467;28;20029;-45
2022/10/29 07:38:07;;;;;;;82.82;33.28;;;;;;;;;;5053317;28;20096;-44
2022/10/29 07:40:33;;;;;;;77.20;33.67;;;;;;;;;;5053340;28;20025;-44
2022/10/29 07:42:58;;;;;;;83.85;33.35;;;;;;;;;;5053305;28;20415;-44
2022/10/29 07:45:23;;;;;;;82.05;34.55;;;;;;;;;;5053034;28;20039;-45
2022/10/29 07:47:56;;;;;;;74.60;32.25;;;;;;;;;;5051724;28;20099;-44
2022/10/29 07:50:23;;;;;;;66.20;30.67;;;;;;;;;;5051946;28;20439;-44
2022/10/29 07:52:48;;;;;;;71.25;32.75;;;;;;;;;;5053672;28;20040;-44
2022/10/29 07:55:13;;;;;;;74.97;32.50;;;;;;;;;;5052981;28;20024;-45
2022/10/29 07:57:39;;;;;;;80.43;33.15;;;;;;;;;;5052854;28;20024;-44
2022/10/29 08:00:04;;;;;;;67.32;30.77;;;;;;;;;;5053070;28;20017;-44
2022/10/29 08:02:29;;;;;;;74.35;31.67;;;;;;;;;;5051665;28;20021;-45
2022/10/29 08:04:55;;;;;;;82.88;32.95;;;;;;;;;;5053000;28;20051;-44
2022/10/29 08:07:20;;;;;;;67.00;30.85;;;;;;;;;;5052755;28;20041;-45
2022/10/29 08:09:45;;;;;;;66.80;31.00;;;;;;;;;;5052808;28;20021;-45
2022/10/29 08:12:10;;;;;;;82.67;31.57;;;;;;;;;;5052678;28;20029;-45
2022/10/29 08:14:36;;;;;;;65.63;29.80;;;;;;;;;;5052597;28;20250;-44
2022/10/29 08:17:01;;;;;;;76.22;31.55;;;;;;;;;;5052890;28;20032;-45
2022/10/29 08:19:28;;;;;;;74.17;30.93;;;;;;;;;;5052659;28;20017;-45
2022/10/29 08:21:54;;;;;;;71.65;33.72;;;;;;;;;;5050273;28;20324;-44
2022/10/29 08:24:19;;;;;;;76.75;30.63;;;;;;;;;;5048465;28;20048;-44
2022/10/29 08:26:44;;;;;;;68.65;30.10;;;;;;;;;;5052152;28;20093;-45
2022/10/29 08:29:10;;;;;;;74.07;31.95;;;;;;;;;;5051340;28;20035;-43
2022/10/29 08:31:35;;;;;;;72.23;31.47;;;;;;;;;;5036420;28;20018;-43
2022/10/29 08:34:00;;;;;;;74.30;31.58;;;;;;;;;;5033285;28;20334;-43
2022/10/29 08:36:26;;;;;;;74.85;30.75;;;;;;;;;;5033087;28;20024;-43
2022/10/29 08:38:51;;;;;;;80.47;34.17;;;;;;;;;;5031140;28;20021;-44
2022/10/29 08:41:29;;;;;;;85.40;34.85;;;;;;;;;;5032163;28;20029;-43
2022/10/29 08:43:55;;;;;;;77.38;33.35;;;;;;;;;;5032639;28;20028;-43
2022/10/29 08:46:40;;;;;;;94.43;39.00;;;;;;;;;;5032696;28;20100;-44
2022/10/29 08:49:09;;;;;;;88.57;36.53;;;;;;;;;;5031827;28;20077;-43
2022/10/29 08:51:41;;;;;;;93.07;37.28;;;;;;;;;;5032520;28;20503;-43
2022/10/29 08:54:11;;;;;;;81.82;36.33;;;;;;;;;;5032503;28;20427;-44
2022/10/29 08:56:37;;;;;;;78.05;34.40;;;;;;;;;;5032500;28;20018;-43
2022/10/29 08:59:10;;;;;;;81.82;33.95;;;;;;;;;;5032418;28;20530;-43
2022/10/29 09:01:36;;;;;;;68.50;31.40;;;;;;;;;;5032376;28;20061;-44
2022/10/29 09:04:02;;;;;;;75.05;33.13;;;;;;;;;;5032636;28;20053;-44
2022/10/29 09:06:36;;;;;;;67.18;32.30;;;;;;;;;;5030959;28;20018;-44
2022/10/29 09:09:20;;;;;;;84.00;32.75;;;;;;;;;;5032644;28;20094;-43
2022/10/29 09:11:46;;;;;;;75.38;33.67;;;;;;;;;;5032315;28;20026;-43
2022/10/29 09:14:14;;;;;;;80.18;35.10;;;;;;;;;;5032560;28;20028;-43
2022/10/29 09:16:42;;;;;;;82.10;36.85;;;;;;;;;;5032614;28;20016;-43
2022/10/29 09:19:10;;;;;;;94.05;38.33;;;;;;;;;;5032135;28;20021;-43
2022/10/29 09:21:44;;;;;;;85.85;37.85;;;;;;;;;;5032336;28;20081;-43
2022/10/29 09:24:12;;;;;;;90.93;40.20;;;;;;;;;;5032963;28;20033;-44
2022/10/29 09:26:58;;;;;;;96.18;41.88;;;;;;;;;;5035997;28;20033;-43
2022/10/29 09:29:23;;;;;;;87.55;39.08;;;;;;;;;;5035422;28;20037;-44
2022/10/29 09:32:03;;;;;;;96.82;39.03;;;;;;;;;;5034804;28;20022;-43
2022/10/29 09:34:41;;;;;;;105.25;42.50;;;;;;;;;;5035967;28;20025;-44
2022/10/29 09:37:14;;;;;;;100.10;41.42;;;;;;;;;;5035689;28;20029;-43
2022/10/29 09:39:40;;;;;;;98.43;39.00;;;;;;;;;;5035653;28;20034;-44
2022/10/29 09:42:41;;;;;;;90.47;40.20;;;;;;;;;;5035553;28;20022;-44
2022/10/29 09:45:11;;;;;;;93.23;39.77;;;;;;;;;;5033103;28;20025;-44
2022/10/29 09:47:55;;;;;;;95.85;40.83;;;;;;;;;;5034760;28;20689;-43
2022/10/29 09:50:26;;;;;;;96.05;41.35;;;;;;;;;;5035127;28;20030;-44
2022/10/29 09:52:52;;;;;;;103.82;43.30;;;;;;;;;;5035560;28;20093;-43
2022/10/29 09:55:27;;;;;;;92.80;39.83;;;;;;;;;;5035497;28;20457;-43
2022/10/29 09:57:55;;;;;;;97.18;41.08;;;;;;;;;;5035388;28;20515;-43
2022/10/29 10:00:20;;;;;;;85.82;40.22;;;;;;;;;;5035294;28;20021;-43
2022/10/29 10:02:55;;;;;;;88.10;39.83;;;;;;;;;;5035053;28;20067;-44
2022/10/29 10:05:33;;;;;;;92.60;42.83;;;;;;;;;;5035347;28;20171;-43
2022/10/29 10:08:07;;;;;;;94.57;43.67;;;;;;;;;;5035163;28;20083;-44
2022/10/29 10:10:33;;;;;;;98.68;41.25;;;;;;;;;;5035094;28;20031;-43
2022/10/29 10:13:03;;;;;;;100.30;43.85;;;;;;;;;;5034881;28;20021;-43
2022/10/29 10:15:33;;;;;;;111.50;46.38;;;;;;;;;;5034974;28;20057;-44
2022/10/29 10:18:02;;;;;;;104.80;44.80;;;;;;;;;;5035130;28;20025;-43
2022/10/29 10:20:28;;;;;;;105.78;48.67;;;;;;;;;;5034983;28;20044;-44
2022/10/29 10:22:53;;;;;;;106.63;46.45;;;;;;;;;;5034899;28;20022;-43
2022/10/29 10:25:38;;;;;;;94.28;45.03;;;;;;;;;;5035099;28;20096;-43
2022/10/29 10:28:24;;;;;;;104.10;46.28;;;;;;;;;;5032991;28;20065;-43
2022/10/29 10:31:10;;;;;;;99.47;44.33;;;;;;;;;;5034284;28;20131;-43
2022/10/29 10:33:42;;;;;;;99.72;44.10;;;;;;;;;;5033860;28;20052;-44
2022/10/29 10:36:08;;;;;;;97.57;46.10;;;;;;;;;;5033279;28;20032;-44
2022/10/29 10:38:41;;;;;;;96.07;44.38;;;;;;;;;;5034666;28;20018;-43
2022/10/29 10:41:08;;;;;;;90.95;44.17;;;;;;;;;;5034748;28;20061;-43
2022/10/29 10:43:33;;;;;;;99.78;43.05;;;;;;;;;;5034618;28;20021;-43
2022/10/29 10:46:02;;;;;;;88.72;42.40;;;;;;;;;;5034497;28;20524;-43
2022/10/29 10:48:28;;;;;;;;;;;;;;;;;;5034558;28;20540;-43
2022/10/29 10:51:28;;;;;;;86.93;41.70;;;;;;;;;;5034428;28;19912;-43
2022/10/29 10:53:53;;;;;;;90.82;42.40;;;;;;;;;;5031952;28;20036;-43
2022/10/29 10:56:20;;;;;;;81.93;39.75;;;;;;;;;;5028764;28;20392;-43
2022/10/29 10:59:06;;;;;;;92.95;42.50;;;;;;;;;;5034034;28;20385;-44
2022/10/29 11:01:34;;;;;;;80.05;40.78;;;;;;;;;;5033740;28;20037;-43
2022/10/29 11:04:04;;;;;;;99.82;43.22;;;;;;;;;;5034200;28;20021;-43
2022/10/29 11:06:35;;;;;;;105.13;45.22;;;;;;;;;;5034139;28;20035;-43
2022/10/29 11:09:01;;;;;;;96.10;44.47;;;;;;;;;;5033957;28;20124;-44
2022/10/29 11:11:26;;;;;;;93.35;43.67;;;;;;;;;;5033808;28;20075;-44
2022/10/29 11:13:52;;;;;;;98.45;43.90;;;;;;;;;;5033779;28;20527;-43
2022/10/29 11:16:26;;;;;;;97.35;44.30;;;;;;;;;;5033855;28;20025;-43
2022/10/29 11:18:59;;;;;;;85.50;40.95;;;;;;;;;;5033806;28;20460;-43
2022/10/29 11:21:28;;;;;;;83.68;40.72;;;;;;;;;;5033837;28;20017;-44
2022/10/29 11:24:12;;;;;;;95.70;43.42;;;;;;;;;;5033476;28;20022;-43
2022/10/29 11:26:45;;;;;;;83.80;43.35;;;;;;;;;;5033975;28;20109;-43
2022/10/29 11:29:23;;;;;;;87.55;40.97;;;;;;;;;;5033488;28;20072;-43
2022/10/29 11:32:01;;;;;;;91.22;43.42;;;;;;;;;;5033639;28;20104;-43
2022/10/29 11:34:49;;;;;;;91.47;42.28;;;;;;;;;;5033715;28;20376;-43
2022/10/29 11:37:22;;;;;;;87.38;42.55;;;;;;;;;;5033488;28;20100;-44
2022/10/29 11:39:56;;;;;;;80.93;41.00;;;;;;;;;;5033389;28;20017;-43
2022/10/29 11:42:21;;;;;;;98.38;44.47;;;;;;;;;;5033453;28;20075;-43
2022/10/29 11:44:46;;;;;;;85.57;41.95;;;;;;;;;;5033208;28;20155;-43
2022/10/29 11:47:12;;;;;;;85.07;42.35;;;;;;;;;;5031597;28;20091;-44
2022/10/29 11:49:45;;;;;;;91.53;43.35;;;;;;;;;;5033344;28;20053;-44
2022/10/29 11:52:12;;;;;;;85.18;41.22;;;;;;;;;;5033319;28;20029;-44
2022/10/29 11:54:56;;;;;;;80.47;40.80;;;;;;;;;;5033191;28;20029;-43
2022/10/29 11:57:28;;;;;;;72.13;38.58;;;;;;;;;;5033060;28;20025;-43
2022/10/29 11:59:53;;;;;;;83.53;40.03;;;;;;;;;;5033609;28;20461;-43
2022/10/29 12:02:26;;;;;;;75.47;39.30;;;;;;;;;;5033123;28;20029;-44
2022/10/29 12:04:51;;;;;;;82.65;39.90;;;;;;;;;;5033020;28;20366;-44
2022/10/29 12:07:36;;;;;;;84.73;39.70;;;;;;;;;;5032766;28;20469;-44
2022/10/29 12:10:02;;;;;;;74.82;38.83;;;;;;;;;;5031938;28;20273;-44
2022/10/29 12:12:47;;;;;;;76.85;38.72;;;;;;;;;;5033011;28;20441;-44
2022/10/29 12:15:23;;;;;;;70.97;37.33;;;;;;;;;;5032794;28;20032;-45
2022/10/29 12:17:53;;;;;;;72.00;40.67;;;;;;;;;;5032793;28;20033;-45
2022/10/29 12:20:23;;;;;;;70.03;38.45;;;;;;;;;;5032596;28;20465;-45
2022/10/29 12:22:52;;;;;;;74.50;40.72;;;;;;;;;;5032952;28;20021;-44
2022/10/29 12:25:23;;;;;;;61.92;35.22;;;;;;;;;;5032768;28;20026;-44
2022/10/29 12:28:07;;;;;;;68.63;36.88;;;;;;;;;;5032891;28;20037;-44
2022/10/29 12:30:36;;;;;;;63.90;35.88;;;;;;;;;;5032607;28;20065;-44
2022/10/29 12:33:19;;;;;;;74.70;38.17;;;;;;;;;;5032888;28;20027;-44
2022/10/29 12:35:53;;;;;;;75.30;39.17;;;;;;;;;;5032802;28;20126;-44
2022/10/29 12:38:19;;;;;;;71.32;38.92;;;;;;;;;;5032422;28;20029;-44
2022/10/29 12:40:47;;;;;;;68.70;36.05;;;;;;;;;;5033101;28;20497;-44
2022/10/29 12:43:21;;;;;;;73.97;38.83;;;;;;;;;;5032329;28;20026;-44
2022/10/29 12:45:52;;;;;;;67.80;37.53;;;;;;;;;;5032977;28;20033;-44
2022/10/29 12:48:27;;;;;;;70.57;38.97;;;;;;;;;;5032509;28;20053;-44
2022/10/29 12:51:04;;;;;;;73.38;38.90;;;;;;;;;;5032460;28;20022;-44
2022/10/29 12:53:32;;;;;;;73.40;38.97;;;;;;;;;;5032286;28;20025;-44
2022/10/29 12:55:57;;;;;;;74.25;39.38;;;;;;;;;;5032635;28;20033;-44
2022/10/29 12:58:41;;;;;;;82.18;41.90;;;;;;;;;;5032570;28;20381;-44
2022/10/29 13:01:27;;;;;;;73.97;41.42;;;;;;;;;;5036474;28;20066;-45
2022/10/29 13:03:55;;;;;;;80.57;41.88;;;;;;;;;;5036131;28;20022;-44
2022/10/29 13:06:39;;;;;;;79.45;40.10;;;;;;;;;;5036596;28;20092;-46
2022/10/29 13:09:19;;;;;;;78.07;39.63;;;;;;;;;;5036468;28;20159;-44
2022/10/29 13:12:03;;;;;;;74.70;41.42;;;;;;;;;;5036361;28;20026;-46
2022/10/29 13:14:28;;;;;;;77.35;40.67;;;;;;;;;;5036120;28;20033;-45
2022/10/29 13:16:54;;;;;;;84.38;42.05;;;;;;;;;;5036093;28;20072;-45
2022/10/29 13:19:37;;;;;;;84.07;40.13;;;;;;;;;;5036132;28;20083;-44
2022/10/29 13:22:05;;;;;;;73.57;40.67;;;;;;;;;;5036111;28;20033;-44
2022/10/29 13:24:31;;;;;;;77.47;40.90;;;;;;;;;;5036000;28;20091;-44
2022/10/29 13:26:56;;;;;;;77.35;41.65;;;;;;;;;;5035688;28;20728;-45
2022/10/29 13:29:40;;;;;;;81.68;42.03;;;;;;;;;;5036078;28;20076;-45
2022/10/29 13:32:05;;;;;;;79.47;40.13;;;;;;;;;;5036001;28;20018;-44
2022/10/29 13:34:52;;;;;;;75.97;39.65;;;;;;;;;;5035810;28;20128;-44
2022/10/29 13:37:47;;;;;;;86.40;43.70;;;;;;;;;;5035712;28;20032;-44
2022/10/29 13:40:22;;;;;;;79.72;40.50;;;;;;;;;;5034932;28;20034;-45
2022/10/29 13:42:58;;;;;;;77.30;40.20;;;;;;;;;;5035630;28;20057;-44
2022/10/29 13:45:24;;;;;;;75.25;40.10;;;;;;;;;;5035549;28;20022;-45
2022/10/29 13:47:49;;;;;;;74.88;40.85;;;;;;;;;;5035120;28;20397;-45
2022/10/29 13:50:18;;;;;;;76.90;40.90;;;;;;;;;;5035529;28;20033;-44
2022/10/29 13:52:45;;;;;;;78.40;42.17;;;;;;;;;;5035667;28;20246;-45
2022/10/29 13:55:14;;;;;;;70.60;38.63;;;;;;;;;;5035455;28;20255;-45
2022/10/29 13:57:42;;;;;;;85.72;41.55;;;;;;;;;;5035254;28;20465;-44
2022/10/29 14:00:10;;;;;;;77.43;41.23;;;;;;;;;;5035253;28;20032;-44
2022/10/29 14:02:38;;;;;;;81.53;40.70;;;;;;;;;;5035582;28;20032;-45
2022/10/29 14:05:06;;;;;;;82.45;42.20;;;;;;;;;;5035302;28;20033;-44
2022/10/29 14:07:42;;;;;;;73.40;38.07;;;;;;;;;;5035205;28;20069;-45
2022/10/29 14:10:15;;;;;;;74.18;40.47;;;;;;;;;;5034888;28;20044;-45
2022/10/29 14:12:41;;;;;;;81.38;40.85;;;;;;;;;;5033839;28;20461;-45
2022/10/29 14:15:10;;;;;;;79.65;41.10;;;;;;;;;;5035070;28;20018;-44
2022/10/29 14:17:35;;;;;;;;;;;;;;;;;;5035598;28;20040;-44
2022/10/29 14:20:01;;;;;;;78.17;41.17;;;;;;;;;;5035411;28;19913;-44
2022/10/29 14:22:29;;;;;;;79.20;40.90;;;;;;;;;;5034877;28;20022;-44